createdAt,value
2019-04-16T04:55:42.848Z,58.50
2019-04-16T04:58:05.481Z,58.10
2019-04-16T05:00:28.153Z,58.50
2019-04-16T05:02:50.709Z,58.40
2019-04-16T05:05:27.331Z,59.00
2019-04-16T05:07:49.875Z,58.80
2019-04-16T05:10:12.447Z,59.10
2019-04-16T05:12:34.906Z,59.30
2019-04-16T05:14:58.724Z,59.70
2019-04-16T05:17:22.931Z,59.60
2019-04-16T05:19:48.731Z,59.60
2019-04-16T05:22:11.224Z,59.30
2019-04-16T05:24:33.659Z,59.20
2019-04-16T05:26:56.390Z,59.10
2019-04-16T05:29:19.114Z,59.10
2019-04-16T05:31:42.048Z,59.00
2019-04-16T05:34:06.022Z,59.00
2019-04-16T05:36:28.916Z,59.00
2019-04-16T05:38:55.486Z,58.90
2019-04-16T05:41:20.666Z,58.70
2019-04-16T05:43:40.164Z,58.60
2019-04-16T05:46:05.553Z,58.50
2019-04-16T05:48:27.178Z,58.00
2019-04-16T05:50:49.804Z,58.30
2019-04-16T05:53:13.368Z,58.10
2019-04-16T05:55:58.618Z,58.10
2019-04-16T05:58:21.198Z,57.80
2019-04-16T06:00:53.432Z,57.60
2019-04-16T06:03:20.624Z,57.40
2019-04-16T06:05:40.362Z,57.10
2019-04-16T06:08:10.326Z,57.10
2019-04-16T06:10:33.051Z,57.10
2019-04-16T06:13:15.796Z,57.10
2019-04-16T06:15:57.928Z,56.60
2019-04-16T06:18:49.012Z,56.70
2019-04-16T06:21:49.779Z,56.20
2019-04-16T06:24:26.657Z,56.20
2019-04-16T06:27:00.504Z,55.90
2019-04-16T06:29:40.122Z,56.00
2019-04-16T06:32:28.877Z,55.70
2019-04-16T06:35:23.568Z,55.40
2019-04-16T06:37:59.923Z,54.60
2019-04-16T06:40:43.926Z,54.70
2019-04-16T06:43:34.840Z,54.40
2019-04-16T06:46:17.938Z,53.50
2019-04-16T06:49:02.695Z,54.00
2019-04-16T06:51:43.554Z,53.90
2019-04-16T06:54:35.756Z,52.70
2019-04-16T06:57:27.395Z,53.40
2019-04-16T07:00:15.467Z,52.90
2019-04-16T07:03:02.444Z,52.50
2019-04-16T07:05:39.314Z,51.80
2019-04-16T07:08:20.220Z,52.50
2019-04-16T07:10:52.873Z,51.70
2019-04-16T07:13:15.319Z,51.00
2019-04-16T07:15:37.852Z,50.80
2019-04-16T07:18:02.555Z,51.00
2019-04-16T07:20:25.552Z,50.50
2019-04-16T07:22:52.745Z,50.70
2019-04-16T07:25:12.564Z,50.80
2019-04-16T07:27:41.496Z,50.60
2019-04-16T07:30:09.271Z,49.30
2019-04-16T07:32:45.901Z,50.00
2019-04-16T07:35:46.282Z,49.50
2019-04-16T07:38:28.311Z,48.70
2019-04-16T07:41:18.566Z,48.90
2019-04-16T07:44:04.467Z,48.50
2019-04-16T07:46:44.173Z,48.70
2019-04-16T07:49:37.620Z,48.30
2019-04-16T07:52:31.925Z,48.40
2019-04-16T07:55:27.353Z,47.30
2019-04-16T07:57:56.444Z,46.90
2019-04-16T08:00:19.538Z,47.40
2019-04-16T08:02:42.295Z,47.10
2019-04-16T08:05:08.657Z,46.80
2019-04-16T08:07:32.458Z,46.60
2019-04-16T08:10:02.095Z,46.00
2019-04-16T08:12:30.515Z,45.60
2019-04-16T08:14:48.114Z,45.20
2019-04-16T08:17:10.583Z,44.90
2019-04-16T08:19:36.961Z,46.40
2019-04-16T08:21:57.477Z,45.40
2019-04-16T08:24:25.550Z,44.60
2019-04-16T08:26:48.100Z,43.40
2019-04-16T08:29:11.124Z,43.90
2019-04-16T08:31:36.828Z,44.40
2019-04-16T08:33:59.420Z,43.90
2019-04-16T08:36:21.968Z,42.60
2019-04-16T08:38:45.510Z,43.30
2019-04-16T08:41:08.151Z,45.10
2019-04-16T08:43:30.730Z,41.30
2019-04-16T08:45:53.369Z,42.50
2019-04-16T08:48:18.636Z,41.70
2019-04-16T08:50:40.310Z,41.90
2019-04-16T08:53:02.887Z,42.40
2019-04-16T08:55:25.485Z,41.00
2019-04-16T08:57:49.175Z,42.00
2019-04-16T09:00:15.409Z,41.60
2019-04-16T09:02:40.024Z,41.30
2019-04-16T09:05:06.392Z,42.20
2019-04-16T09:07:41.192Z,43.00
2019-04-16T09:10:16.177Z,42.30
2019-04-16T09:12:31.186Z,42.10
2019-04-16T09:15:03.837Z,41.70
2019-04-16T09:17:30.790Z,41.50
2019-04-16T09:20:09.205Z,40.90
2019-04-16T09:22:31.746Z,40.00
2019-04-16T09:25:01.622Z,39.80
2019-04-16T09:27:34.122Z,40.10
2019-04-16T09:30:09.862Z,40.00
2019-04-16T09:33:01.068Z,40.50
2019-04-16T09:42:53.199Z,37.90
2019-04-16T09:49:10.556Z,38.70
2019-04-16T09:52:25.078Z,37.90
2019-04-16T09:54:58.304Z,37.40
2019-04-16T09:58:25.475Z,38.00
2019-04-16T10:01:07.849Z,37.30
2019-04-16T10:03:38.982Z,36.80
2019-04-16T10:06:18.379Z,39.70
2019-04-16T10:08:44.353Z,38.20
2019-04-16T10:11:19.786Z,38.00
2019-04-16T10:14:01.740Z,40.20
2019-04-16T10:16:29.156Z,37.20
2019-04-16T10:20:10.204Z,37.70
2019-04-16T10:23:17.841Z,39.20
2019-04-16T10:26:35.598Z,38.70
2019-04-16T10:29:06.520Z,38.50
2019-04-16T10:31:30.328Z,38.50
2019-04-16T10:33:52.995Z,39.50
2019-04-16T10:36:15.667Z,40.00
2019-04-16T10:38:50.066Z,38.70
2019-04-16T10:41:16.574Z,37.00
2019-04-16T10:43:46.531Z,36.40
2019-04-16T10:46:56.808Z,36.00
2019-04-16T10:49:38.395Z,35.40
2019-04-16T10:52:23.814Z,35.90
2019-04-16T10:55:14.030Z,35.80
2019-04-16T10:58:26.541Z,35.10
2019-04-16T11:00:55.441Z,34.70
2019-04-16T11:03:38.065Z,32.50
2019-04-16T11:06:05.742Z,32.60
2019-04-16T11:08:31.418Z,31.70
2019-04-16T12:25:26.615Z,27.80
2019-04-16T12:28:11.828Z,27.30
2019-04-16T12:30:57.062Z,27.30
2019-04-16T12:33:42.061Z,27.40
2019-04-16T12:36:35.308Z,28.00
2019-04-16T12:39:04.062Z,27.60
2019-04-16T12:42:00.054Z,27.80
2019-04-16T12:44:28.129Z,27.10
2019-04-16T12:47:14.693Z,27.20
2019-04-16T12:50:08.916Z,27.90
2019-04-16T12:52:54.934Z,27.60
2019-04-16T12:55:52.925Z,27.50
2019-04-16T12:58:34.897Z,28.40
2019-04-16T13:01:37.195Z,29.20
2019-04-16T13:04:20.455Z,26.90
2019-04-16T13:07:31.976Z,27.60
2019-04-16T13:10:26.713Z,29.70
2019-04-16T13:13:09.865Z,29.70
2019-04-16T13:16:05.505Z,28.70
2019-04-16T13:18:52.839Z,27.70
2019-04-16T13:21:32.737Z,28.80
2019-04-16T13:24:29.569Z,28.60
2019-04-16T13:27:22.743Z,29.80
2019-04-16T13:30:05.845Z,30.10
2019-04-16T13:32:32.626Z,29.60
2019-04-16T13:34:58.223Z,30.70
2019-04-16T13:37:23.988Z,29.50
2019-04-16T13:40:19.151Z,30.20
2019-04-16T13:42:47.011Z,29.30
2019-04-16T13:45:49.235Z,28.70
2019-04-16T13:48:53.125Z,27.80
2019-04-16T13:51:20.849Z,28.80
2019-04-16T13:54:23.124Z,29.40
2019-04-16T13:57:16.492Z,29.70
2019-04-16T14:00:02.955Z,30.00
2019-04-16T14:02:29.490Z,30.00
2019-04-16T14:04:59.866Z,30.00
2019-04-16T14:07:30.704Z,29.40
2019-04-16T14:09:57.986Z,30.20
2019-04-16T14:12:41.861Z,29.90
2019-04-16T14:15:10.382Z,29.30
2019-04-16T14:17:51.830Z,29.60
2019-04-16T14:20:08.639Z,30.40
2019-04-16T14:22:41.580Z,34.30
2019-04-16T14:25:09.178Z,35.60
2019-04-16T14:27:39.105Z,36.90
2019-04-16T14:30:10.309Z,37.40
2019-04-16T14:32:47.727Z,38.00
2019-04-16T14:35:15.571Z,38.70
2019-04-16T14:37:48.360Z,38.80
2019-04-16T14:40:21.385Z,39.30
2019-04-16T14:42:43.974Z,39.60
2019-04-16T14:45:16.177Z,39.90
2019-04-16T14:47:38.681Z,40.30
2019-04-16T14:50:01.255Z,40.90
2019-04-16T14:52:24.265Z,41.20
2019-04-16T14:54:52.403Z,41.80
2019-04-16T14:57:15.218Z,42.10
2019-04-16T14:59:53.812Z,42.20
2019-04-16T15:02:30.533Z,42.40
2019-04-16T15:05:19.325Z,42.40
2019-04-16T15:08:01.452Z,42.30
2019-04-16T15:10:46.725Z,42.60
2019-04-16T15:13:28.783Z,42.30
2019-04-16T15:16:13.849Z,43.60
2019-04-16T15:18:55.452Z,43.50
2019-04-16T15:21:43.046Z,44.10
2019-04-16T15:24:07.732Z,43.60
2019-04-16T15:26:53.486Z,43.00
2019-04-16T15:29:23.492Z,44.30
2019-04-16T15:32:08.144Z,43.60
2019-04-16T15:34:41.963Z,44.30
2019-04-16T15:37:10.198Z,44.10
2019-04-16T15:39:42.062Z,44.40
2019-04-16T15:42:36.647Z,44.40
2019-04-16T15:45:08.070Z,43.70
2019-04-16T15:47:47.056Z,44.50
2019-04-16T15:50:35.085Z,44.70
2019-04-16T15:52:59.262Z,44.80
2019-04-16T15:56:00.908Z,44.60
2019-04-16T15:58:42.085Z,44.40
2019-04-16T16:02:02.478Z,44.90
2019-04-16T16:05:17.145Z,45.10
2019-04-16T18:53:47.724Z,58.80
2019-04-16T18:56:10.499Z,58.80
2019-04-16T18:58:33.210Z,59.80
2019-04-16T19:01:01.228Z,59.70
2019-04-16T19:03:23.858Z,59.30
2019-04-16T19:05:46.596Z,60.40
2019-04-16T19:08:10.628Z,60.40
2019-04-16T19:10:33.416Z,60.60
2019-04-16T19:12:56.472Z,60.80
2019-04-16T19:15:19.245Z,60.60
2019-04-16T19:17:41.747Z,60.80
2019-04-16T19:20:05.324Z,61.00
2019-04-16T19:22:28.049Z,61.70
2019-04-16T19:24:50.631Z,61.70
2019-04-16T19:27:13.198Z,62.20
2019-04-16T19:29:35.897Z,61.90
2019-04-16T19:31:58.762Z,60.80
2019-04-16T19:34:21.528Z,61.30
2019-04-16T19:36:44.140Z,61.50
2019-04-16T19:39:13.501Z,61.70
2019-04-16T19:41:32.507Z,61.40
2019-04-16T19:43:55.186Z,61.50
2019-04-16T19:46:17.889Z,61.40
2019-04-16T19:48:40.501Z,62.20
2019-04-16T19:51:03.124Z,62.40
2019-04-16T19:53:25.607Z,62.10
2019-04-16T19:55:48.211Z,61.90
2019-04-16T19:58:10.775Z,62.30
2019-04-16T20:00:33.354Z,62.80
